メインページ
METAR-TAF:

METAR-TAF

空港 :

キング・アブドゥルアズィーズ国際空港

ジッダ, サウジアラビア

緯度: 21-42N, 経度: 039-11E, 海抜: 15m

現時点の気象観測

当レポートは26分前の01:00(UTC)に作成
無風
気温 21°C
湿度 73%
気圧 1015 hPa
視程10km以上
1,500メートル以下は雲なし、積乱雲なし

METAR: OEJN 210100Z 00000KT CAVOK 21/16 Q1015 NOSIG

時間: 04:26 (01:26 UTC)

予報

当レポートは2時間26分前の23:00(UTC)に作成
予報は21日の 00時(UTC)から 22日の 06時(UTC)まで有効
北東の風 8kt
視程: 7000m
高度4000ftの雲は散在している
21日の 08時(UTC)から 21日の 10時(UTC)まで徐々に
西の風 12kt

TAF: OEJN 202300Z 2100/2206 04008KT 7000 SCT040 BECMG 2108/2110 27012KT

4,000以上の空港の気象観測と天気予報(METAR報とTAF報)

利用可能な観測所は地図上に黄色い丸と赤い丸で示す。

丸の上にカーソルを重ねると観測所名を参照できる。

次にクリックすると気象観測と天気予報を参照できる。

マップの切り替え:黒色「×」印の緑ボタンをクリックして拡大、「-」印の緑ボタンをクリックして縮小、緑色の三角印をクリックして隣りの地図に切り替え


METAR-TAF: